createdAt,value
2023-01-17T00:02:07.451Z,98.78
2023-01-17T00:04:52.779Z,99.39
2023-01-17T00:07:56.308Z,99.04
2023-01-17T00:10:25.334Z,99.14
2023-01-17T00:13:03.300Z,99.61
2023-01-17T00:15:31.262Z,99.64
2023-01-17T00:17:58.496Z,99.26
2023-01-17T00:20:46.665Z,98.83
2023-01-17T00:23:41.998Z,99.05
2023-01-17T00:26:15.689Z,98.68
2023-01-17T00:28:43.475Z,98.50
2023-01-17T00:31:13.873Z,98.51
2023-01-17T00:33:40.390Z,97.56
2023-01-17T00:36:07.854Z,97.65
2023-01-17T00:38:36.890Z,98.73
2023-01-17T00:41:09.009Z,98.68
2023-01-17T00:43:54.823Z,99.25
2023-01-17T00:46:40.445Z,98.56
2023-01-17T00:49:25.906Z,98.99
2023-01-17T00:52:11.057Z,99.49
2023-01-17T00:54:56.140Z,98.76
2023-01-17T00:57:41.111Z,98.98
2023-01-17T01:00:26.840Z,98.54
2023-01-17T01:03:12.020Z,98.57
2023-01-17T01:05:57.391Z,98.27
2023-01-17T01:08:46.286Z,98.75
2023-01-17T01:11:33.629Z,99.35
2023-01-17T01:14:19.875Z,98.81
2023-01-17T01:17:05.372Z,99.18
2023-01-17T01:19:50.966Z,99.83
2023-01-17T01:22:36.125Z,99.69
2023-01-17T01:25:21.119Z,99.10
2023-01-17T01:28:06.323Z,99.38
2023-01-17T01:30:51.468Z,99.32
2023-01-17T01:33:20.872Z,98.52
2023-01-17T01:35:53.646Z,97.66
2023-01-17T01:38:23.738Z,96.68
2023-01-17T01:40:53.240Z,95.81
2023-01-17T01:43:38.861Z,96.17
2023-01-17T01:46:06.355Z,95.17
2023-01-17T01:48:43.649Z,95.66
2023-01-17T01:51:13.460Z,95.75
2023-01-17T01:53:45.195Z,95.95
2023-01-17T01:56:13.696Z,97.03
2023-01-17T01:58:44.495Z,97.00
2023-01-17T02:01:11.344Z,97.88
2023-01-17T02:03:40.829Z,97.84
2023-01-17T02:06:25.687Z,98.69
2023-01-17T02:08:52.507Z,99.16
2023-01-17T02:11:19.139Z,99.21
2023-01-17T02:13:45.573Z,100.00
2023-01-17T02:16:38.575Z,100.00
2023-01-17T02:19:14.153Z,100.00
2023-01-17T02:21:57.960Z,100.00
2023-01-17T02:24:39.993Z,100.00
2023-01-17T02:27:35.458Z,100.00
2023-01-17T02:30:33.375Z,100.00
2023-01-17T02:33:15.677Z,100.00
2023-01-17T02:36:19.013Z,100.00
2023-01-17T02:38:51.027Z,100.00
2023-01-17T02:41:27.634Z,100.00
2023-01-17T02:43:54.102Z,100.00
2023-01-17T02:46:20.966Z,100.00
2023-01-17T02:48:48.078Z,100.00
2023-01-17T02:51:49.912Z,100.00
2023-01-17T02:54:42.260Z,100.00
2023-01-17T02:57:36.735Z,99.72
2023-01-17T03:00:47.672Z,99.72
2023-01-17T03:03:45.393Z,99.21
2023-01-17T03:06:21.613Z,98.63
2023-01-17T03:08:51.428Z,98.02
2023-01-17T03:11:18.015Z,97.92
2023-01-17T03:13:44.702Z,97.33
2023-01-17T03:16:17.102Z,96.75
2023-01-17T03:18:44.001Z,96.67
2023-01-17T03:21:10.620Z,96.50
2023-01-17T03:23:37.071Z,96.67
2023-01-17T03:26:03.998Z,97.31
2023-01-17T03:28:30.461Z,97.57
2023-01-17T03:30:56.934Z,97.95
2023-01-17T03:33:24.117Z,97.97
2023-01-17T03:35:50.643Z,97.58
2023-01-17T03:38:17.179Z,97.86
2023-01-17T03:40:43.587Z,98.08
2023-01-17T03:43:10.034Z,97.39
2023-01-17T03:45:37.432Z,96.80
2023-01-17T03:48:04.199Z,96.56
2023-01-17T03:50:30.591Z,96.78
2023-01-17T03:52:57.210Z,96.25
2023-01-17T03:55:23.721Z,96.14
2023-01-17T03:57:50.236Z,96.34
2023-01-17T04:00:17.094Z,96.11
2023-01-17T04:02:43.552Z,96.77
2023-01-17T04:05:10.009Z,96.74
2023-01-17T04:07:36.463Z,96.66
2023-01-17T04:10:03.479Z,96.54
2023-01-17T04:12:30.145Z,96.72
2023-01-17T04:14:56.609Z,96.56
2023-01-17T04:17:23.079Z,97.83
2023-01-17T04:19:49.512Z,98.54
2023-01-17T04:22:16.861Z,98.15
2023-01-17T04:24:43.276Z,97.83
2023-01-17T04:27:14.133Z,97.83
2023-01-17T04:29:40.609Z,98.06
2023-01-17T04:32:07.221Z,97.81
2023-01-17T04:34:33.861Z,97.65
2023-01-17T04:37:00.372Z,97.44
2023-01-17T04:39:26.967Z,97.05
2023-01-17T04:41:53.401Z,96.79
2023-01-17T04:44:19.779Z,96.52
2023-01-17T04:46:46.176Z,96.43
2023-01-17T04:49:12.621Z,97.28
2023-01-17T04:51:39.070Z,97.14
2023-01-17T04:54:05.561Z,98.03
2023-01-17T04:56:32.325Z,98.25
2023-01-17T04:58:59.031Z,98.01
2023-01-17T05:01:25.812Z,97.42
2023-01-17T05:03:52.302Z,97.83
2023-01-17T05:06:18.873Z,97.35
2023-01-17T05:08:45.289Z,96.43
2023-01-17T05:11:11.673Z,95.89
2023-01-17T05:13:38.117Z,95.50
2023-01-17T05:16:04.898Z,95.16
2023-01-17T05:18:31.458Z,95.58
2023-01-17T05:21:03.394Z,95.93
2023-01-17T05:23:29.949Z,96.48
2023-01-17T05:25:56.424Z,97.21
2023-01-17T05:28:22.919Z,97.64
2023-01-17T05:30:49.352Z,98.34
2023-01-17T05:33:15.878Z,98.09
2023-01-17T05:35:42.924Z,98.41
2023-01-17T05:38:09.459Z,98.79
2023-01-17T05:40:36.060Z,98.77
2023-01-17T05:43:05.621Z,99.92
2023-01-17T05:45:33.384Z,99.98
2023-01-17T05:48:00.772Z,99.76
2023-01-17T05:50:38.122Z,100.00
2023-01-17T05:53:10.266Z,100.00
2023-01-17T05:55:36.892Z,100.00
2023-01-17T05:58:04.148Z,100.00
2023-01-17T06:00:31.821Z,100.00
2023-01-17T06:02:59.992Z,100.00
2023-01-17T06:05:28.005Z,100.00
2023-01-17T06:07:54.871Z,100.00
2023-01-17T06:10:22.207Z,100.00
2023-01-17T06:12:49.159Z,100.00
2023-01-17T06:15:17.805Z,100.00
2023-01-17T06:17:44.270Z,100.00
2023-01-17T06:20:12.250Z,100.00
2023-01-17T06:22:38.835Z,100.00
2023-01-17T06:25:05.595Z,100.00
2023-01-17T06:27:32.387Z,100.00
2023-01-17T06:29:59.014Z,100.00
2023-01-17T06:32:25.465Z,100.00
2023-01-17T06:34:51.880Z,100.00
2023-01-17T06:37:18.327Z,100.00
2023-01-17T06:39:44.954Z,100.00
2023-01-17T06:42:11.391Z,99.43
2023-01-17T06:44:38.120Z,99.52
2023-01-17T06:47:04.751Z,99.14
2023-01-17T06:49:31.302Z,99.75
2023-01-17T06:51:57.714Z,100.00
2023-01-17T06:54:24.166Z,99.71
2023-01-17T06:56:50.567Z,100.00
2023-01-17T06:59:16.962Z,100.00
2023-01-17T07:01:43.442Z,100.00
2023-01-17T07:04:09.921Z,99.94
2023-01-17T07:06:37.087Z,100.00
2023-01-17T07:09:04.813Z,100.00
2023-01-17T07:11:31.944Z,100.00
2023-01-17T07:13:58.583Z,100.00
2023-01-17T07:16:25.402Z,100.00
2023-01-17T07:18:54.638Z,100.00
2023-01-17T07:21:21.083Z,100.00
2023-01-17T07:23:48.175Z,99.73
2023-01-17T07:26:16.800Z,100.00
2023-01-17T07:28:43.395Z,99.45
2023-01-17T07:31:10.286Z,99.48
2023-01-17T07:33:36.757Z,99.71
2023-01-17T07:36:07.847Z,99.78
2023-01-17T07:38:34.944Z,99.72
2023-01-17T07:41:02.265Z,99.92
2023-01-17T07:43:28.805Z,99.79
2023-01-17T07:45:55.472Z,99.48
2023-01-17T07:48:24.413Z,99.38
2023-01-17T07:50:55.603Z,98.85
2023-01-17T07:53:24.533Z,98.35
2023-01-17T07:55:51.781Z,97.67
2023-01-17T07:58:18.421Z,97.73
2023-01-17T08:00:44.975Z,97.65
2023-01-17T08:03:14.100Z,97.89
2023-01-17T08:05:42.485Z,97.44
2023-01-17T08:08:09.320Z,96.53
2023-01-17T08:10:36.469Z,96.66
2023-01-17T08:13:04.919Z,95.72
2023-01-17T08:15:31.426Z,95.28
2023-01-17T08:17:58.702Z,95.81
2023-01-17T08:20:27.789Z,95.09
2023-01-17T08:22:56.246Z,94.98
2023-01-17T08:25:24.454Z,94.73
2023-01-17T08:27:51.907Z,95.85
2023-01-17T08:30:18.688Z,95.23
2023-01-17T08:32:45.102Z,94.29
2023-01-17T08:35:11.537Z,94.40
2023-01-17T08:37:39.164Z,94.47
2023-01-17T08:40:07.114Z,95.50
2023-01-17T08:42:39.168Z,95.08
2023-01-17T08:45:07.686Z,95.32
2023-01-17T08:47:35.000Z,94.70
2023-01-17T08:50:02.037Z,95.32
2023-01-17T08:52:29.139Z,95.20
2023-01-17T08:54:55.617Z,94.74
2023-01-17T08:57:22.433Z,94.35
2023-01-17T08:59:48.828Z,94.36
2023-01-17T09:02:17.505Z,94.58
2023-01-17T09:04:48.685Z,94.43
2023-01-17T09:07:17.424Z,93.87
2023-01-17T09:09:43.904Z,93.53
2023-01-17T09:12:10.480Z,93.39
2023-01-17T09:14:37.720Z,92.89
2023-01-17T09:17:06.797Z,92.44
2023-01-17T09:19:33.427Z,92.84
2023-01-17T09:22:00.282Z,92.66
2023-01-17T09:24:26.919Z,92.48
2023-01-17T09:26:53.303Z,91.88
2023-01-17T09:29:20.067Z,90.94
2023-01-17T09:31:49.853Z,90.86
2023-01-17T09:34:18.461Z,90.14
2023-01-17T09:36:44.996Z,90.41
2023-01-17T09:39:15.232Z,89.49
2023-01-17T09:42:00.286Z,89.65
2023-01-17T09:44:45.312Z,87.93
2023-01-17T09:47:19.250Z,88.80
2023-01-17T09:49:46.988Z,88.78
2023-01-17T09:52:20.878Z,88.86
2023-01-17T09:54:49.243Z,89.32
2023-01-17T09:57:23.521Z,88.17
2023-01-17T10:00:25.153Z,87.50
2023-01-17T10:03:23.149Z,88.21
2023-01-17T10:06:03.214Z,88.24
2023-01-17T10:08:53.261Z,88.55
2023-01-17T10:11:44.749Z,87.44
2023-01-17T10:14:35.357Z,87.02
2023-01-17T10:17:21.759Z,86.96
2023-01-17T10:20:19.132Z,87.84
2023-01-17T10:23:08.553Z,86.34
2023-01-17T10:25:49.226Z,86.41
2023-01-17T10:28:41.476Z,86.48
2023-01-17T10:31:18.087Z,86.08
2023-01-17T10:33:54.971Z,85.53
2023-01-17T10:36:41.153Z,85.63
2023-01-17T10:39:23.516Z,85.50
2023-01-17T10:41:55.634Z,85.19
2023-01-17T10:44:34.202Z,84.56
2023-01-17T10:47:09.602Z,84.81
2023-01-17T10:49:39.684Z,84.42
2023-01-17T10:52:34.164Z,84.15
2023-01-17T10:55:18.774Z,84.39
2023-01-17T10:57:48.166Z,83.49
2023-01-17T11:00:41.727Z,82.66
2023-01-17T11:03:11.481Z,82.58
2023-01-17T11:05:38.445Z,82.01
2023-01-17T11:08:05.168Z,81.92
2023-01-17T11:10:47.170Z,81.27
2023-01-17T11:13:34.260Z,82.02
2023-01-17T11:16:05.947Z,81.23
2023-01-17T11:18:39.306Z,81.21
2023-01-17T11:21:09.500Z,80.10
2023-01-17T11:23:35.998Z,80.17
2023-01-17T11:26:05.989Z,79.29
2023-01-17T11:28:34.498Z,79.31
2023-01-17T11:31:04.300Z,80.24
2023-01-17T11:33:45.202Z,81.07
2023-01-17T11:36:17.794Z,80.44
2023-01-17T11:39:03.098Z,79.32
2023-01-17T11:41:48.449Z,79.36
2023-01-17T11:44:22.617Z,78.88
2023-01-17T11:47:08.175Z,78.70
2023-01-17T11:49:36.133Z,78.77
2023-01-17T11:52:22.160Z,78.34
2023-01-17T11:54:49.722Z,78.00
2023-01-17T11:57:22.619Z,78.11
2023-01-17T11:59:49.829Z,78.92
2023-01-17T12:02:18.970Z,79.83
2023-01-17T12:04:47.783Z,79.70
2023-01-17T12:07:29.569Z,78.74
2023-01-17T12:10:09.430Z,78.33
2023-01-17T12:12:57.361Z,78.35
2023-01-17T12:15:30.145Z,78.35
2023-01-17T12:18:24.531Z,78.37
2023-01-17T12:21:03.085Z,78.38
2023-01-17T12:24:03.408Z,78.51
2023-01-17T12:26:38.443Z,78.52
2023-01-17T12:29:49.870Z,77.51
2023-01-17T12:32:22.399Z,77.95
2023-01-17T12:34:58.966Z,78.34
2023-01-17T12:37:34.485Z,78.10
2023-01-17T12:40:13.023Z,77.49
2023-01-17T12:42:48.801Z,77.35
2023-01-17T12:45:24.269Z,77.21
2023-01-17T12:47:58.832Z,77.70
2023-01-17T12:50:32.625Z,78.19
2023-01-17T12:53:20.218Z,78.06
2023-01-17T12:55:57.711Z,78.10
2023-01-17T12:58:31.044Z,77.73
2023-01-17T13:01:18.475Z,76.03
2023-01-17T13:03:57.741Z,75.70
2023-01-17T13:07:00.160Z,75.29
2023-01-17T13:09:48.314Z,75.51
2023-01-17T13:12:21.032Z,75.52
2023-01-17T13:14:48.030Z,75.67
2023-01-17T13:17:32.180Z,74.89
2023-01-17T13:20:31.822Z,75.06
2023-01-17T13:23:09.478Z,75.83
2023-01-17T13:25:48.633Z,75.67
2023-01-17T13:28:38.294Z,74.97
2023-01-17T13:31:47.847Z,74.78
2023-01-17T13:34:20.429Z,74.62
2023-01-17T13:37:02.432Z,74.05
2023-01-17T13:39:46.251Z,73.76
2023-01-17T13:42:28.974Z,74.59
2023-01-17T13:44:56.683Z,73.56
2023-01-17T13:47:24.395Z,74.20
2023-01-17T13:49:56.174Z,74.03
2023-01-17T13:52:25.275Z,74.44
2023-01-17T13:54:53.256Z,74.29
2023-01-17T13:57:33.050Z,73.82
2023-01-17T14:00:35.781Z,74.72
2023-01-17T14:03:03.988Z,74.89
2023-01-17T14:05:30.483Z,74.90
2023-01-17T14:08:12.428Z,74.49
2023-01-17T14:10:41.938Z,74.64
2023-01-17T14:13:37.294Z,74.85
2023-01-17T14:16:28.514Z,74.74
2023-01-17T14:18:55.742Z,75.18
2023-01-17T14:21:23.916Z,75.78
2023-01-17T14:23:59.432Z,75.91
2023-01-17T14:26:33.212Z,75.90
2023-01-17T14:29:39.865Z,76.26
2023-01-17T14:32:11.834Z,76.31
2023-01-17T14:34:38.396Z,76.71
2023-01-17T14:37:16.034Z,76.18
2023-01-17T14:39:44.946Z,76.13
2023-01-17T14:42:16.191Z,75.83
2023-01-17T14:44:46.895Z,76.23
2023-01-17T14:47:14.796Z,76.10
2023-01-17T14:49:41.461Z,76.03
2023-01-17T14:52:17.568Z,76.71
2023-01-17T14:54:48.880Z,77.13
2023-01-17T14:57:25.290Z,76.69
2023-01-17T14:59:51.751Z,77.15
2023-01-17T15:02:18.668Z,77.66
2023-01-17T15:04:53.698Z,77.12
2023-01-17T15:07:20.333Z,77.71
2023-01-17T15:09:47.059Z,78.29
2023-01-17T15:12:14.454Z,78.36
2023-01-17T15:14:44.783Z,78.17
2023-01-17T15:17:24.682Z,78.37
2023-01-17T15:19:56.965Z,78.30
2023-01-17T15:22:25.798Z,78.54
2023-01-17T15:24:53.553Z,78.80
2023-01-17T15:27:20.474Z,78.67
2023-01-17T15:29:47.740Z,78.54
2023-01-17T15:32:24.189Z,79.19
2023-01-17T15:34:52.041Z,79.48
2023-01-17T15:37:29.702Z,79.62
2023-01-17T15:40:04.197Z,79.66
2023-01-17T15:42:32.391Z,79.72
2023-01-17T15:45:03.402Z,80.24
2023-01-17T15:47:33.124Z,80.37
2023-01-17T15:50:02.401Z,80.67
2023-01-17T15:52:29.101Z,80.61
2023-01-17T15:55:12.455Z,81.04
2023-01-17T15:57:39.656Z,80.96
2023-01-17T16:00:32.441Z,81.70
2023-01-17T16:02:59.611Z,81.60
2023-01-17T16:05:30.934Z,81.86
2023-01-17T16:08:22.850Z,82.17
2023-01-17T16:10:54.954Z,82.08
2023-01-17T16:13:21.854Z,81.92
2023-01-17T16:15:48.658Z,82.62
2023-01-17T16:18:18.847Z,82.69
2023-01-17T16:21:05.442Z,82.99
2023-01-17T16:23:32.031Z,82.79
2023-01-17T16:25:58.513Z,83.02
2023-01-17T16:28:25.069Z,83.77
2023-01-17T16:30:53.961Z,83.20
2023-01-17T16:33:20.517Z,83.57
2023-01-17T16:35:47.369Z,83.32
2023-01-17T16:38:19.020Z,83.62
2023-01-17T16:40:46.557Z,84.05
2023-01-17T16:43:14.593Z,83.84
2023-01-17T16:45:43.262Z,83.79
2023-01-17T16:48:11.375Z,84.32
2023-01-17T16:50:41.442Z,84.20
2023-01-17T16:53:08.047Z,84.05
2023-01-17T16:55:34.548Z,83.79
2023-01-17T16:58:01.303Z,84.34
2023-01-17T17:00:27.670Z,84.35
2023-01-17T17:02:54.261Z,84.46
2023-01-17T17:05:20.834Z,84.55
2023-01-17T17:07:50.797Z,84.71
2023-01-17T17:10:19.875Z,84.23
2023-01-17T17:12:46.496Z,84.74
2023-01-17T17:15:13.703Z,84.90
2023-01-17T17:17:42.055Z,85.01
2023-01-17T17:20:13.859Z,85.16
2023-01-17T17:22:45.313Z,85.30
2023-01-17T17:25:12.303Z,86.09
2023-01-17T17:27:39.249Z,86.19
2023-01-17T17:30:07.072Z,86.50
2023-01-17T17:32:33.666Z,86.69
2023-01-17T17:35:00.620Z,86.38
2023-01-17T17:37:30.328Z,86.63
2023-01-17T17:39:57.136Z,86.10
2023-01-17T17:42:23.905Z,86.17
2023-01-17T17:44:50.328Z,86.57
2023-01-17T17:47:17.778Z,87.08
2023-01-17T17:49:44.330Z,87.24
2023-01-17T17:52:10.763Z,86.90
2023-01-17T17:54:37.266Z,87.08
2023-01-17T17:57:03.755Z,86.97
2023-01-17T17:59:31.105Z,87.15
2023-01-17T18:01:58.842Z,87.18
2023-01-17T18:04:25.648Z,87.71
2023-01-17T18:06:55.603Z,87.56
2023-01-17T18:09:22.070Z,87.76
2023-01-17T18:11:48.545Z,87.70
2023-01-17T18:14:15.583Z,87.95
2023-01-17T18:16:43.915Z,87.85
2023-01-17T18:19:19.432Z,88.09
2023-01-17T18:21:46.515Z,88.24
2023-01-17T18:24:16.005Z,88.13
2023-01-17T18:26:50.951Z,88.59
2023-01-17T18:29:19.492Z,88.72
2023-01-17T18:31:47.506Z,88.20
2023-01-17T18:34:16.122Z,88.50
2023-01-17T18:36:43.612Z,88.31
2023-01-17T18:39:15.815Z,88.13
2023-01-17T18:41:42.337Z,88.28
2023-01-17T18:44:10.140Z,88.52
2023-01-17T18:46:37.471Z,88.86
2023-01-17T18:49:04.661Z,88.91
2023-01-17T18:51:33.430Z,88.93
2023-01-17T18:54:02.915Z,89.38
2023-01-17T18:56:32.054Z,89.07
2023-01-17T18:58:58.666Z,88.97
2023-01-17T19:01:28.148Z,89.05
2023-01-17T19:04:00.527Z,89.75
2023-01-17T19:06:31.039Z,89.84
2023-01-17T19:09:01.210Z,89.71
2023-01-17T19:11:28.519Z,89.63
2023-01-17T19:13:55.552Z,89.73
2023-01-17T19:16:28.205Z,89.59
2023-01-17T19:18:56.961Z,89.28
2023-01-17T19:21:25.764Z,89.70
2023-01-17T19:23:53.443Z,90.47
2023-01-17T19:26:20.395Z,90.54
2023-01-17T19:28:48.575Z,91.05
2023-01-17T19:31:21.175Z,90.76
2023-01-17T19:33:49.658Z,90.68
2023-01-17T19:36:19.792Z,90.55
2023-01-17T19:39:02.955Z,90.53
2023-01-17T19:41:30.717Z,90.08
2023-01-17T19:44:03.579Z,90.31
2023-01-17T19:46:30.512Z,90.59
2023-01-17T19:48:57.624Z,90.64
2023-01-17T19:51:26.715Z,90.37
2023-01-17T19:53:56.430Z,90.88
2023-01-17T19:56:25.342Z,91.02
2023-01-17T19:58:52.358Z,91.01
2023-01-17T20:01:28.620Z,90.79
2023-01-17T20:03:57.889Z,91.33
2023-01-17T20:06:29.235Z,91.30
2023-01-17T20:08:56.224Z,91.48
2023-01-17T20:11:24.192Z,91.51
2023-01-17T20:13:55.601Z,91.29
2023-01-17T20:16:23.497Z,91.22
2023-01-17T20:18:50.713Z,91.59
2023-01-17T20:21:19.679Z,91.48
2023-01-17T20:23:47.821Z,91.63
2023-01-17T20:26:16.594Z,91.32
2023-01-17T20:28:45.161Z,91.61
2023-01-17T20:31:14.438Z,92.01
2023-01-17T20:33:43.068Z,91.40
2023-01-17T20:36:12.336Z,91.31
2023-01-17T20:38:45.017Z,91.32
2023-01-17T20:41:19.925Z,91.00
2023-01-17T20:43:48.845Z,91.39
2023-01-17T20:46:17.027Z,91.11
2023-01-17T20:48:45.414Z,90.89
2023-01-17T20:51:12.149Z,90.88
2023-01-17T20:53:40.295Z,91.17
2023-01-17T20:56:08.745Z,91.04
2023-01-17T20:58:35.848Z,91.30
2023-01-17T21:01:02.799Z,91.08
2023-01-17T21:03:29.376Z,91.18
2023-01-17T21:06:03.802Z,91.07
2023-01-17T21:08:32.462Z,90.84
2023-01-17T21:10:59.132Z,90.57
2023-01-17T21:13:26.098Z,90.57
2023-01-17T21:15:52.842Z,91.17
2023-01-17T21:18:21.807Z,91.28
2023-01-17T21:20:48.963Z,91.15
2023-01-17T21:23:19.117Z,91.25
2023-01-17T21:25:55.870Z,91.10
2023-01-17T21:28:25.008Z,91.34
2023-01-17T21:30:52.413Z,91.12
2023-01-17T21:33:20.527Z,91.11
2023-01-17T21:35:46.989Z,91.67
2023-01-17T21:38:14.298Z,91.92
2023-01-17T21:40:41.283Z,92.11
2023-01-17T21:43:08.298Z,92.20
2023-01-17T21:45:41.930Z,91.80
2023-01-17T21:48:14.504Z,91.46
2023-01-17T21:50:41.000Z,91.45
2023-01-17T21:53:10.015Z,91.22
2023-01-17T21:55:55.619Z,91.29
2023-01-17T21:58:40.841Z,91.50
2023-01-17T22:01:09.007Z,91.62
2023-01-17T22:03:36.149Z,91.46
2023-01-17T22:06:04.567Z,91.60
2023-01-17T22:08:32.848Z,91.41
2023-01-17T22:11:07.296Z,91.63
2023-01-17T22:13:35.100Z,91.72
2023-01-17T22:16:04.721Z,91.79
2023-01-17T22:18:33.939Z,91.26
2023-01-17T22:21:07.921Z,91.42
2023-01-17T22:23:35.080Z,91.42
2023-01-17T22:26:03.769Z,91.48
2023-01-17T22:28:31.868Z,91.86
2023-01-17T22:31:10.650Z,91.73
2023-01-17T22:33:38.302Z,91.86
2023-01-17T22:36:06.071Z,92.09
2023-01-17T22:38:33.753Z,91.94
2023-01-17T22:41:08.105Z,91.97
2023-01-17T22:43:36.341Z,92.14
2023-01-17T22:46:04.753Z,92.31
2023-01-17T22:48:33.391Z,92.31
2023-01-17T22:51:02.335Z,92.10
2023-01-17T22:53:29.701Z,91.81
2023-01-17T22:56:04.337Z,91.26
2023-01-17T22:58:31.749Z,91.26
2023-01-17T23:01:15.927Z,91.22
2023-01-17T23:03:42.475Z,91.26
2023-01-17T23:06:16.643Z,91.10
2023-01-17T23:08:45.922Z,90.61
2023-01-17T23:11:44.909Z,90.31
2023-01-17T23:14:18.562Z,90.60
2023-01-17T23:17:26.976Z,90.82
2023-01-17T23:19:54.565Z,90.92
2023-01-17T23:22:26.994Z,90.85
2023-01-17T23:25:11.479Z,90.66
2023-01-17T23:27:59.559Z,90.50
2023-01-17T23:30:35.401Z,90.70
2023-01-17T23:33:04.816Z,90.80
2023-01-17T23:35:33.686Z,90.55
2023-01-17T23:38:19.047Z,90.53
2023-01-17T23:41:05.304Z,90.80
2023-01-17T23:43:32.833Z,90.88
2023-01-17T23:45:59.661Z,91.30
2023-01-17T23:48:26.603Z,91.33
2023-01-17T23:51:01.038Z,91.52
2023-01-17T23:53:28.442Z,91.76
2023-01-17T23:55:56.544Z,91.82
2023-01-17T23:58:25.419Z,92.16
